Weather at Baker's Valley Aerodrome

Public forecast

Using degrees Celsius for public forecast. Weather courtesy of forecast.io.

Closest aviation weather report (METAR) to Baker's Valley Aerodrome

Closest report is Kingston Norman Rogers Airport, 34.8 nm (64.5 km) SSE.

2024/05/28 13:00 (retrieved 40 minutes ago)

CYGK 281300Z 23009KT 15SM SCT020 BKN077 17/15 A2966 RMK SC4AC3 SLP046 DENSITY ALT 1000FT

Closest aviation forecast (TAF) to Baker's Valley Aerodrome

Closest forecast is Kingston Norman Rogers Airport, 34.8 nm (64.5 km) SSE.

2024/05/28 12:42 (retrieved 58 minutes ago)

TAF CYGK 281140Z 2812/2824 23012KT P6SM SCT020 BKN040 TEMPO 2812/2817 P6SM -SHRA BKN020 OVC040 FM281700 23012G22KT P6SM -SHRA SCT020 BKN040 TEMPO 2817/2824 5SM -SHRA BR BKN020 OVC040 PROB30 2817/2823 2SM TSRA BR BKN008 OVC020CB RMK NXT FCST BY 281400Z